Time;durP1;ratioP1;P1;durP2;ratioP2;P2;SDS_P1;SDS_P2;PMS_P1;PMS_P2;Temp;Humidity;BMP_temperature;BMP_pressure;BME280_temperature;BME280_humidity;BME280_pressure;Samples;Min_cycle;Max_cycle;Signal;HPM_P1;HPM_P2
2020/12/12 00:00:33;;;;;;;38.92;21.92;;;4.40;91.90;;;;;;5016883;28;20064;-53
2020/12/12 00:02:59;;;;;;;37.17;21.50;;;4.40;91.80;;;;;;5021887;28;20033;-52
2020/12/12 00:05:25;;;;;;;42.42;22.23;;;4.40;91.90;;;;;;5021958;28;20045;-54
2020/12/12 00:07:51;;;;;;;39.72;22.55;;;4.40;91.80;;;;;;5025603;28;20038;-54
2020/12/12 00:10:16;;;;;;;36.67;20.77;;;4.40;91.90;;;;;;5013711;28;20042;-53
2020/12/12 00:12:43;;;;;;;36.22;20.85;;;4.40;91.90;;;;;;5015473;28;20096;-56
2020/12/12 00:15:09;;;;;;;40.00;21.67;;;4.40;92.10;;;;;;5018809;28;20139;-54
2020/12/12 00:17:55;;;;;;;39.63;21.50;;;4.50;91.80;;;;;;5010470;28;20033;-55
2020/12/12 00:20:20;;;;;;;36.03;20.55;;;4.50;91.60;;;;;;5016039;28;20041;-56
2020/12/12 00:22:46;;;;;;;39.17;21.27;;;4.50;91.80;;;;;;5034097;28;20096;-55
2020/12/12 00:25:32;;;;;;;33.00;19.73;;;4.40;91.90;;;;;;5020237;28;20046;-55
2020/12/12 00:27:58;;;;;;;38.70;21.75;;;4.40;92.00;;;;;;5020947;28;20034;-56
2020/12/12 00:30:45;;;;;;;34.80;20.35;;;4.40;92.00;;;;;;5007227;28;20124;-56
2020/12/12 00:33:31;;;;;;;38.05;21.20;;;4.40;92.00;;;;;;5003094;28;20046;-56
2020/12/12 00:35:59;;;;;;;33.25;19.10;;;4.40;92.10;;;;;;5005448;28;20046;-55
2020/12/12 00:38:45;;;;;;;38.33;21.38;;;4.50;91.90;;;;;;5014488;28;20053;-56
2020/12/12 00:41:10;;;;;;;40.67;21.67;;;4.40;91.90;;;;;;5035508;28;20053;-55
2020/12/12 00:43:36;;;;;;;40.17;21.48;;;4.40;91.80;;;;;;5022838;28;20037;-56
2020/12/12 00:46:03;;;;;;;37.67;21.92;;;4.40;91.80;;;;;;5027696;28;20185;-56
2020/12/12 00:48:49;;;;;;;37.35;21.33;;;4.40;92.00;;;;;;4998239;28;20053;-55
2020/12/12 00:51:15;;;;;;;37.65;22.13;;;4.40;92.00;;;;;;5018515;28;20549;-55
2020/12/12 00:54:01;;;;;;;36.70;21.05;;;4.40;92.30;;;;;;5008241;28;20524;-54
2020/12/12 00:56:47;;;;;;;39.35;22.88;;;4.40;92.10;;;;;;5004296;28;20042;-54
2020/12/12 00:59:33;;;;;;;36.95;20.98;;;4.40;92.00;;;;;;5009609;28;20081;-55
2020/12/12 01:01:59;;;;;;;39.30;22.05;;;4.40;92.20;;;;;;5018524;28;20053;-56
2020/12/12 01:04:45;;;;;;;34.40;20.58;;;4.40;92.10;;;;;;5014159;28;20092;-56
2020/12/12 01:07:10;;;;;;;36.75;21.40;;;4.40;92.10;;;;;;5027311;28;20040;-55
2020/12/12 01:09:36;;;;;;;40.72;22.35;;;4.40;92.00;;;;;;5016482;28;20046;-56
2020/12/12 01:12:04;;;;;;;42.80;22.63;;;4.40;92.00;;;;;;5024052;28;20045;-56
2020/12/12 01:14:53;;;;;;;38.30;22.05;;;4.40;92.00;;;;;;5009076;28;20050;-56
2020/12/12 01:17:20;;;;;;;40.58;22.48;;;4.50;91.90;;;;;;5017232;28;20053;-55
2020/12/12 01:19:47;;;;;;;38.50;21.42;;;4.40;91.80;;;;;;5026626;28;20053;-56
2020/12/12 01:22:13;;;;;;;35.15;18.98;;;4.40;92.00;;;;;;5031361;28;20139;-53
2020/12/12 01:24:41;;;;;;;38.80;22.30;;;4.40;91.90;;;;;;5027637;28;20053;-55
2020/12/12 01:27:08;;;;;;;38.08;22.02;;;4.50;91.80;;;;;;5014643;28;20048;-55
2020/12/12 01:29:34;;;;;;;42.50;23.17;;;4.50;91.80;;;;;;5020560;28;20490;-55
2020/12/12 01:32:00;;;;;;;37.92;22.15;;;4.40;91.90;;;;;;4998411;28;20045;-56
2020/12/12 01:34:26;;;;;;;38.15;22.70;;;4.40;92.00;;;;;;5010924;28;20042;-55
2020/12/12 01:36:55;;;;;;;37.25;21.10;;;4.30;92.20;;;;;;4982657;28;20156;-55
2020/12/12 01:39:23;;;;;;;38.42;22.88;;;4.40;92.20;;;;;;5014151;28;20127;-55
2020/12/12 01:41:53;;;;;;;36.90;21.23;;;4.40;92.00;;;;;;5020513;28;20048;-55
2020/12/12 01:44:25;;;;;;;37.20;22.45;;;4.40;91.80;;;;;;5025295;28;20058;-52
2020/12/12 01:46:50;;;;;;;40.92;22.23;;;4.40;91.90;;;;;;5019736;28;20073;-56
2020/12/12 01:49:21;;;;;;;40.20;22.75;;;4.50;91.80;;;;;;5036812;28;20426;-55
2020/12/12 01:51:48;;;;;;;41.05;23.60;;;4.40;91.90;;;;;;5026431;28;20038;-56
2020/12/12 01:54:14;;;;;;;39.20;22.45;;;4.50;91.70;;;;;;5020697;28;20047;-57
2020/12/12 01:56:41;;;;;;;38.75;21.98;;;4.50;92.00;;;;;;5021992;28;20128;-55
2020/12/12 01:59:07;;;;;;;41.67;21.95;;;4.40;92.10;;;;;;5009771;28;20099;-55
2020/12/12 02:01:57;;;;;;;41.47;21.98;;;4.40;92.10;;;;;;5012109;28;20060;-56
2020/12/12 02:04:25;;;;;;;40.95;23.55;;;4.40;92.20;;;;;;5016827;28;20041;-56
2020/12/12 02:06:57;;;;;;;39.58;22.48;;;4.40;92.20;;;;;;5026362;28;20090;-55
2020/12/12 02:09:44;;;;;;;38.43;21.87;;;4.40;92.20;;;;;;5002953;28;20104;-54
2020/12/12 02:12:30;;;;;;;39.55;22.77;;;4.50;91.90;;;;;;5020738;28;20041;-55
2020/12/12 02:15:20;;;;;;;38.70;23.00;;;4.50;91.90;;;;;;5009417;28;20160;-56
2020/12/12 02:17:46;;;;;;;42.95;23.55;;;4.50;92.00;;;;;;5021888;28;20501;-54
2020/12/12 02:20:12;;;;;;;38.47;22.83;;;4.50;91.90;;;;;;5029927;28;20038;-56
2020/12/12 02:23:00;;;;;;;41.55;22.85;;;4.40;92.10;;;;;;5020920;28;20044;-55
2020/12/12 02:25:46;;;;;;;43.25;22.15;;;4.40;92.20;;;;;;5021721;28;20041;-52
2020/12/12 02:28:15;;;;;;;40.00;22.40;;;4.50;92.20;;;;;;5031522;28;20046;-52
2020/12/12 02:31:05;;;;;;;46.63;23.85;;;4.40;92.20;;;;;;5012788;28;20511;-55
2020/12/12 02:33:51;;;;;;;42.28;23.35;;;4.50;92.30;;;;;;5015193;28;20044;-52
2020/12/12 02:36:38;;;;;;;46.65;23.20;;;4.40;92.20;;;;;;4992988;28;20045;-53
2020/12/12 02:39:08;;;;;;;45.97;24.75;;;4.50;92.50;;;;;;5007655;28;20037;-55
2020/12/12 02:41:34;;;;;;;43.17;23.90;;;4.40;92.40;;;;;;5017815;28;20057;-53
2020/12/12 02:44:20;;;;;;;43.88;23.50;;;4.40;92.60;;;;;;4999916;28;20538;-55
2020/12/12 02:46:46;;;;;;;51.97;25.13;;;4.50;92.50;;;;;;5018403;28;20485;-54
2020/12/12 02:49:14;;;;;;;45.28;23.65;;;4.40;92.70;;;;;;5019768;28;20049;-55
2020/12/12 02:51:42;;;;;;;46.30;23.95;;;4.40;92.60;;;;;;5026812;28;20045;-56
2020/12/12 02:54:08;;;;;;;49.70;25.48;;;4.40;92.60;;;;;;5017310;28;20038;-55
2020/12/12 02:56:34;;;;;;;47.38;25.25;;;4.40;92.80;;;;;;5019320;28;20076;-55
2020/12/12 02:59:01;;;;;;;52.15;25.73;;;4.30;92.70;;;;;;5015810;28;20042;-53
2020/12/12 03:01:27;;;;;;;51.58;25.80;;;4.40;92.90;;;;;;5024899;28;20095;-54
2020/12/12 03:03:53;;;;;;;47.00;25.35;;;4.30;92.90;;;;;;5015315;28;20042;-57
2020/12/12 03:06:20;;;;;;;50.60;24.45;;;4.40;92.90;;;;;;5016584;28;20069;-52
2020/12/12 03:08:47;;;;;;;46.35;24.67;;;4.40;92.90;;;;;;5017380;28;20116;-53
2020/12/12 03:11:14;;;;;;;49.50;26.17;;;4.50;92.80;;;;;;5022838;28;20044;-53
2020/12/12 03:13:41;;;;;;;50.50;24.45;;;4.50;92.80;;;;;;5025896;28;20088;-54
2020/12/12 03:16:09;;;;;;;52.35;26.52;;;4.40;93.00;;;;;;5006537;28;20057;-55
2020/12/12 03:18:54;;;;;;;46.65;25.80;;;4.30;93.00;;;;;;5017759;28;20045;-56
2020/12/12 03:21:20;;;;;;;49.53;24.95;;;4.40;93.10;;;;;;5011795;28;20037;-54
2020/12/12 03:23:46;;;;;;;52.22;26.05;;;4.30;93.10;;;;;;5015165;28;20072;-51
2020/12/12 03:26:13;;;;;;;49.67;26.02;;;4.30;93.30;;;;;;5009282;28;20417;-55
2020/12/12 03:29:05;;;;;;;49.80;24.92;;;4.30;93.30;;;;;;5012038;28;20041;-55
2020/12/12 03:31:31;;;;;;;55.45;26.08;;;4.40;93.30;;;;;;5013829;28;20493;-55
2020/12/12 03:33:56;;;;;;;50.42;25.45;;;4.40;93.20;;;;;;5022049;28;20072;-56
2020/12/12 03:36:22;;;;;;;58.00;26.58;;;4.40;93.30;;;;;;5016438;28;20490;-52
2020/12/12 03:38:50;;;;;;;59.85;26.75;;;4.40;93.30;;;;;;5014130;28;20045;-56
2020/12/12 03:41:18;;;;;;;64.15;28.60;;;4.40;93.30;;;;;;5011129;28;20051;-54
2020/12/12 03:43:44;;;;;;;59.03;27.52;;;4.30;93.40;;;;;;5030972;28;20041;-56
2020/12/12 03:46:10;;;;;;;56.55;27.55;;;4.30;93.50;;;;;;5021336;28;20132;-55
2020/12/12 03:48:37;;;;;;;59.20;28.42;;;4.30;93.90;;;;;;5011997;28;20049;-55
2020/12/12 03:51:25;;;;;;;59.88;28.17;;;4.30;93.70;;;;;;5009717;28;20037;-56
2020/12/12 03:53:50;;;;;;;65.32;28.02;;;4.30;93.70;;;;;;5014494;28;20120;-55
2020/12/12 03:56:16;;;;;;;59.90;26.90;;;4.30;93.70;;;;;;5011993;28;20065;-56
2020/12/12 03:58:41;;;;;;;68.95;28.70;;;4.30;93.70;;;;;;4996269;28;20045;-55
2020/12/12 04:01:27;;;;;;;62.55;28.55;;;4.30;93.80;;;;;;5000986;28;20049;-54
2020/12/12 04:03:54;;;;;;;65.43;29.40;;;4.30;93.90;;;;;;5014119;28;20338;-55
2020/12/12 04:06:21;;;;;;;52.60;27.05;;;4.30;93.70;;;;;;5014248;28;20053;-55
2020/12/12 04:08:50;;;;;;;58.05;26.85;;;4.30;93.70;;;;;;5017300;28;20037;-55
2020/12/12 04:11:16;;;;;;;56.50;28.15;;;4.30;93.80;;;;;;5029543;28;20042;-52
2020/12/12 04:13:43;;;;;;;60.20;28.58;;;4.30;93.80;;;;;;5010020;28;20057;-54
2020/12/12 04:16:10;;;;;;;53.58;26.58;;;4.30;93.90;;;;;;5012129;28;20053;-54
2020/12/12 04:18:36;;;;;;;59.17;26.98;;;4.40;93.80;;;;;;5023101;28;20096;-54
2020/12/12 04:21:02;;;;;;;59.50;27.98;;;4.30;93.90;;;;;;5023113;28;20108;-55
2020/12/12 04:23:48;;;;;;;59.78;28.33;;;4.40;93.90;;;;;;5003942;28;20127;-55
2020/12/12 04:26:35;;;;;;;61.75;28.08;;;4.40;93.70;;;;;;5004418;28;20069;-55
2020/12/12 04:29:01;;;;;;;59.97;28.33;;;4.40;93.80;;;;;;5007344;28;20059;-55
2020/12/12 04:31:26;;;;;;;55.63;27.10;;;4.50;93.70;;;;;;5021309;28;20397;-56
2020/12/12 04:33:57;;;;;;;54.13;26.58;;;4.40;93.70;;;;;;5010667;28;20050;-56
2020/12/12 04:36:23;;;;;;;60.58;27.88;;;4.40;93.70;;;;;;5014564;28;20679;-54
2020/12/12 04:38:49;;;;;;;55.78;27.83;;;4.40;93.80;;;;;;5025247;28;20510;-54
2020/12/12 04:41:19;;;;;;;60.80;27.45;;;4.40;93.80;;;;;;5013424;28;20049;-55
2020/12/12 04:43:45;;;;;;;54.97;27.42;;;4.40;93.90;;;;;;5024053;28;20065;-56
2020/12/12 04:46:12;;;;;;;60.80;28.05;;;4.40;94.00;;;;;;5011138;28;20395;-55
2020/12/12 04:48:45;;;;;;;55.78;27.98;;;4.40;93.70;;;;;;5021523;28;20033;-56
2020/12/12 04:51:12;;;;;;;56.17;27.25;;;4.40;93.80;;;;;;5028306;28;20128;-57
2020/12/12 04:53:38;;;;;;;55.03;27.92;;;4.40;93.90;;;;;;5017428;28;20140;-55
2020/12/12 04:56:12;;;;;;;57.50;27.42;;;4.50;93.80;;;;;;5025624;28;20133;-55
2020/12/12 04:58:38;;;;;;;63.60;29.90;;;4.40;93.90;;;;;;5027527;28;20548;-56
2020/12/12 05:01:05;;;;;;;51.03;25.80;;;4.50;93.80;;;;;;5027487;28;20438;-55
2020/12/12 05:03:33;;;;;;;65.80;29.23;;;4.60;93.80;;;;;;5020593;28;20132;-55
2020/12/12 05:05:59;;;;;;;59.53;28.70;;;4.60;93.70;;;;;;5024845;28;20042;-55
2020/12/12 05:08:26;;;;;;;67.63;28.73;;;4.50;93.80;;;;;;4995824;28;20037;-53
2020/12/12 05:10:52;;;;;;;63.70;28.52;;;4.50;93.90;;;;;;5024838;28;20037;-56
2020/12/12 05:13:25;;;;;;;64.15;28.73;;;4.60;93.60;;;;;;5023799;28;20095;-56
2020/12/12 05:16:12;;;;;;;61.58;28.10;;;4.50;93.80;;;;;;5000883;28;20053;-56
2020/12/12 05:19:00;;;;;;;55.47;27.45;;;4.50;93.70;;;;;;5004410;28;20133;-55
2020/12/12 05:21:27;;;;;;;63.85;29.65;;;4.40;94.00;;;;;;5022154;28;20053;-54
2020/12/12 05:24:12;;;;;;;72.57;30.10;;;4.40;93.90;;;;;;5009410;28;20140;-54
2020/12/12 05:26:38;;;;;;;70.70;29.98;;;4.50;93.90;;;;;;5020553;28;20129;-55
2020/12/12 05:29:07;;;;;;;59.17;28.77;;;4.50;93.90;;;;;;5028785;28;20042;-54
2020/12/12 05:31:57;;;;;;;57.60;29.40;;;4.50;93.90;;;;;;5003589;28;20034;-55
2020/12/12 05:34:43;;;;;;;70.53;31.23;;;4.50;93.80;;;;;;5003146;28;20049;-55
2020/12/12 05:37:08;;;;;;;60.60;28.92;;;4.50;93.70;;;;;;5030702;28;20038;-55
2020/12/12 05:39:56;;;;;;;63.85;31.30;;;4.50;93.70;;;;;;5008626;28;20048;-54
2020/12/12 05:42:43;;;;;;;62.30;29.67;;;4.50;93.70;;;;;;4992180;28;20064;-54
2020/12/12 05:45:29;;;;;;;64.60;29.25;;;4.40;93.90;;;;;;4992990;28;20132;-55
2020/12/12 05:47:56;;;;;;;71.20;31.02;;;4.50;93.80;;;;;;5016661;28;20200;-55
2020/12/12 05:50:24;;;;;;;57.70;29.45;;;4.50;93.70;;;;;;5019203;28;20102;-56
2020/12/12 05:53:11;;;;;;;61.17;29.20;;;4.40;93.90;;;;;;4989804;28;20037;-55
2020/12/12 05:55:38;;;;;;;54.55;26.20;;;4.50;93.80;;;;;;5017774;28;20056;-55
2020/12/12 05:58:04;;;;;;;62.67;30.48;;;4.60;93.60;;;;;;5020380;28;20045;-53
2020/12/12 06:00:31;;;;;;;64.90;30.40;;;4.60;93.50;;;;;;5015368;28;20048;-56
2020/12/12 06:03:26;;;;;;;66.68;30.17;;;4.50;93.70;;;;;;5013290;28;20068;-56
2020/12/12 06:06:19;;;;;;;63.35;30.85;;;4.50;93.70;;;;;;4987093;28;20128;-56
2020/12/12 06:08:59;;;;;;;64.93;29.65;;;4.50;93.80;;;;;;5030669;28;20045;-54
2020/12/12 06:11:28;;;;;;;59.80;28.95;;;4.50;93.80;;;;;;5025275;28;20136;-54
2020/12/12 06:14:14;;;;;;;64.50;29.80;;;4.40;93.80;;;;;;5007438;28;20045;-55
2020/12/12 06:17:06;;;;;;;63.55;30.27;;;4.40;94.00;;;;;;4998870;28;20054;-56
2020/12/12 06:19:36;;;;;;;68.88;30.67;;;4.40;93.80;;;;;;5033175;28;20544;-55
2020/12/12 06:22:02;;;;;;;60.75;29.25;;;4.40;93.90;;;;;;5018473;28;20034;-55
2020/12/12 06:24:32;;;;;;;67.55;29.00;;;4.40;94.10;;;;;;5013089;28;20128;-56
2020/12/12 06:27:17;;;;;;;60.83;29.25;;;4.50;94.00;;;;;;5024435;28;20034;-56
2020/12/12 06:29:49;;;;;;;64.50;31.05;;;4.50;93.90;;;;;;5015075;28;20076;-53
2020/12/12 06:32:16;;;;;;;63.63;30.95;;;4.60;93.60;;;;;;5026002;28;20052;-55
2020/12/12 06:34:49;;;;;;;63.35;30.08;;;4.50;93.80;;;;;;5030795;28;20041;-56
2020/12/12 06:37:44;;;;;;;58.00;29.35;;;4.40;93.90;;;;;;5012562;28;20045;-55
2020/12/12 06:40:19;;;;;;;66.13;30.88;;;4.40;94.00;;;;;;5022605;28;20050;-56
2020/12/12 06:42:46;;;;;;;62.63;30.67;;;4.40;94.10;;;;;;5013739;28;20093;-54
2020/12/12 06:45:18;;;;;;;63.50;31.15;;;4.50;94.00;;;;;;5021644;28;20417;-53
2020/12/12 06:47:51;;;;;;;67.50;32.22;;;4.50;94.00;;;;;;5015614;28;20080;-55
2020/12/12 06:50:22;;;;;;;57.17;27.70;;;4.50;94.10;;;;;;5015401;28;20045;-55
2020/12/12 06:52:54;;;;;;;64.25;31.08;;;4.60;94.00;;;;;;5016389;28;20132;-56
2020/12/12 06:55:22;;;;;;;64.10;30.30;;;4.50;93.80;;;;;;5016692;28;20052;-56
2020/12/12 06:57:49;;;;;;;59.08;30.23;;;4.50;94.00;;;;;;5018612;28;20038;-55
2020/12/12 07:00:34;;;;;;;68.15;30.70;;;4.50;94.10;;;;;;5030175;28;20107;-56
2020/12/12 07:03:02;;;;;;;71.43;30.90;;;4.50;93.90;;;;;;5019423;28;20509;-55
2020/12/12 07:05:37;;;;;;;64.85;30.25;;;4.50;94.10;;;;;;5019326;28;20053;-52
2020/12/12 07:08:07;;;;;;;66.53;31.38;;;4.50;93.90;;;;;;5019701;28;20041;-56
2020/12/12 07:10:35;;;;;;;67.15;30.38;;;4.50;94.10;;;;;;5018317;28;20125;-56
2020/12/12 07:13:20;;;;;;;61.85;31.95;;;4.50;94.00;;;;;;5008249;28;20041;-55
2020/12/12 07:15:46;;;;;;;68.93;31.60;;;4.50;93.90;;;;;;5014542;28;20407;-52
2020/12/12 07:18:13;;;;;;;60.67;30.25;;;4.60;94.10;;;;;;5011650;28;20890;-56
2020/12/12 07:21:00;;;;;;;69.78;29.92;;;4.50;94.00;;;;;;4997278;28;20077;-55
2020/12/12 07:23:26;;;;;;;63.22;29.20;;;4.60;94.20;;;;;;5021426;28;20034;-55
2020/12/12 07:25:52;;;;;;;67.80;30.25;;;4.50;93.90;;;;;;5013650;28;20045;-56
2020/12/12 07:28:18;;;;;;;71.63;30.55;;;4.50;94.20;;;;;;5021743;28;20052;-55
2020/12/12 07:31:06;;;;;;;65.18;29.25;;;4.50;94.20;;;;;;5008047;28;20107;-56
2020/12/12 07:33:52;;;;;;;68.88;30.63;;;4.60;94.20;;;;;;5000376;28;20070;-55
2020/12/12 07:36:18;;;;;;;55.10;27.95;;;4.60;94.00;;;;;;5018513;28;20618;-55
2020/12/12 07:38:44;;;;;;;66.43;29.80;;;4.60;94.20;;;;;;5026646;28;20095;-54
2020/12/12 07:41:30;;;;;;;57.17;28.80;;;4.60;94.10;;;;;;5001260;28;20037;-54
2020/12/12 07:44:16;;;;;;;56.70;28.52;;;4.60;94.10;;;;;;4998463;28;20042;-55
2020/12/12 07:46:59;;;;;;;65.28;28.42;;;4.60;94.20;;;;;;5009295;28;20085;-56
2020/12/12 07:49:25;;;;;;;54.95;26.55;;;4.60;94.20;;;;;;5026700;28;20033;-53
2020/12/12 07:52:16;;;;;;;56.63;26.35;;;4.60;94.20;;;;;;5004957;28;20124;-55
2020/12/12 07:54:51;;;;;;;;;;;4.70;94.10;;;;;;5017389;28;20537;-55
2020/12/12 07:57:41;;;;;;;57.95;27.23;;;4.60;94.10;;;;;;4996292;28;19921;-55
2020/12/12 08:00:27;;;;;;;50.92;25.70;;;4.60;94.10;;;;;;4977762;28;20049;-53
2020/12/12 08:03:12;;;;;;;50.53;25.20;;;4.60;94.10;;;;;;4993535;28;20078;-54
2020/12/12 08:05:38;;;;;;;53.58;26.23;;;4.60;94.40;;;;;;5015242;28;20044;-53
2020/12/12 08:08:10;;;;;;;54.45;26.27;;;4.70;94.20;;;;;;5016498;28;20065;-57
2020/12/12 08:11:03;;;;;;;52.35;25.73;;;4.80;94.10;;;;;;5008160;28;20128;-55
2020/12/12 08:13:32;;;;;;;50.10;26.65;;;4.80;94.00;;;;;;5019830;28;20045;-56
2020/12/12 08:16:08;;;;;;;54.58;26.00;;;4.80;94.00;;;;;;4994809;28;20124;-55
2020/12/12 08:19:06;;;;;;;62.17;26.60;;;4.80;93.90;;;;;;5012772;28;20088;-56
2020/12/12 08:21:35;;;;;;;49.58;26.35;;;4.80;94.00;;;;;;5000140;28;20029;-55
2020/12/12 08:24:05;;;;;;;61.45;26.17;;;4.80;93.90;;;;;;5015769;28;20046;-55
2020/12/12 08:26:32;;;;;;;50.15;24.88;;;4.80;94.10;;;;;;5019087;28;20493;-56
2020/12/12 08:29:01;;;;;;;52.97;27.05;;;4.80;94.00;;;;;;5022793;28;20068;-56
2020/12/12 08:31:27;;;;;;;46.17;25.80;;;4.80;94.10;;;;;;5014924;28;20030;-56
2020/12/12 08:33:55;;;;;;;51.30;26.30;;;4.90;94.00;;;;;;5019933;28;20037;-55
2020/12/12 08:36:29;;;;;;;55.50;27.17;;;4.90;94.10;;;;;;5016481;28;20037;-56
2020/12/12 08:39:14;;;;;;;;;;;4.90;94.20;;;;;;5001910;28;20103;-55
2020/12/12 08:42:00;;;;;;;52.05;26.95;;;5.00;93.80;;;;;;5005763;28;19924;-56
2020/12/12 08:44:45;;;;;;;51.58;25.80;;;4.90;93.90;;;;;;5004606;28;20069;-52
2020/12/12 08:47:13;;;;;;;59.35;28.77;;;4.90;94.00;;;;;;5022224;28;20183;-55
2020/12/12 08:49:38;;;;;;;57.00;27.65;;;4.90;94.10;;;;;;5016815;28;20124;-55
2020/12/12 08:52:04;;;;;;;55.95;26.38;;;4.90;94.00;;;;;;5014809;28;20132;-56
2020/12/12 08:55:00;;;;;;;57.63;25.67;;;4.90;94.00;;;;;;5002372;28;20513;-55
2020/12/12 08:58:00;;;;;;;51.45;25.23;;;4.90;94.00;;;;;;5006929;28;20049;-56
2020/12/12 09:00:46;;;;;;;56.20;25.27;;;4.90;94.10;;;;;;5007753;28;20049;-55
2020/12/12 09:03:15;;;;;;;47.85;24.58;;;4.90;94.20;;;;;;5017088;28;20042;-56
2020/12/12 09:05:41;;;;;;;52.70;26.08;;;5.00;94.20;;;;;;5017051;28;20034;-56
2020/12/12 09:08:26;;;;;;;55.30;26.73;;;5.00;94.10;;;;;;5005560;28;20045;-55
2020/12/12 09:10:53;;;;;;;49.53;25.58;;;5.00;94.20;;;;;;5016799;28;20299;-52
2020/12/12 09:13:39;;;;;;;49.80;26.65;;;5.00;94.10;;;;;;5010579;28;20326;-55
2020/12/12 09:16:25;;;;;;;57.90;29.25;;;5.10;94.10;;;;;;4993496;28;20107;-55
2020/12/12 09:18:52;;;;;;;54.33;26.85;;;5.10;94.10;;;;;;5020243;28;20060;-55
2020/12/12 09:21:20;;;;;;;49.38;25.85;;;5.10;94.10;;;;;;5022518;28;20103;-54
2020/12/12 09:23:47;;;;;;;51.15;25.95;;;5.10;94.20;;;;;;5027053;28;20113;-54
2020/12/12 09:26:15;;;;;;;60.13;28.15;;;5.10;94.20;;;;;;5010023;28;20042;-53
2020/12/12 09:29:00;;;;;;;56.03;26.52;;;5.10;94.20;;;;;;5018379;28;20050;-56
2020/12/12 09:31:27;;;;;;;63.55;28.52;;;5.20;94.20;;;;;;5036070;28;20053;-56
2020/12/12 09:34:12;;;;;;;62.67;27.83;;;5.10;94.20;;;;;;5019537;28;20461;-56
2020/12/12 09:36:38;;;;;;;64.43;28.55;;;5.20;94.40;;;;;;5024420;28;20033;-56
2020/12/12 09:39:05;;;;;;;69.85;29.95;;;5.20;94.30;;;;;;5026054;28;20046;-55
2020/12/12 09:41:31;;;;;;;56.50;26.90;;;5.20;94.30;;;;;;5019821;28;20050;-54
2020/12/12 09:44:16;;;;;;;62.17;28.65;;;5.20;94.30;;;;;;5005827;28;20449;-56
2020/12/12 09:46:42;;;;;;;60.90;28.15;;;5.20;94.20;;;;;;5021093;28;20129;-55
2020/12/12 09:49:08;;;;;;;65.43;31.20;;;5.20;94.30;;;;;;5025203;28;20038;-57
2020/12/12 09:51:34;;;;;;;63.50;29.60;;;5.30;94.40;;;;;;5031020;28;20067;-56
2020/12/12 09:54:01;;;;;;;60.10;28.88;;;5.30;94.30;;;;;;5024527;28;20046;-56
2020/12/12 09:56:48;;;;;;;64.65;29.27;;;5.40;94.10;;;;;;5000980;28;20072;-56
2020/12/12 09:59:34;;;;;;;62.40;28.45;;;5.40;94.10;;;;;;5009946;28;20136;-52
2020/12/12 10:02:00;;;;;;;67.97;29.75;;;5.40;94.20;;;;;;5027522;28;20125;-56
2020/12/12 10:04:48;;;;;;;63.03;30.27;;;5.40;94.20;;;;;;5019717;28;20061;-56
2020/12/12 10:07:34;;;;;;;59.83;28.75;;;5.40;94.30;;;;;;5015839;28;20041;-55
2020/12/12 10:09:59;;;;;;;61.03;29.02;;;5.40;94.40;;;;;;5027546;28;20048;-55
2020/12/12 10:12:25;;;;;;;63.67;30.38;;;5.50;94.30;;;;;;5022344;28;20456;-55
2020/12/12 10:14:51;;;;;;;72.28;31.80;;;5.50;94.20;;;;;;5030737;28;20073;-56
2020/12/12 10:17:16;;;;;;;63.53;29.13;;;5.50;94.30;;;;;;5024750;28;20052;-56
2020/12/12 10:20:03;;;;;;;70.45;29.65;;;5.50;94.30;;;;;;5004459;28;20045;-55
2020/12/12 10:22:28;;;;;;;62.88;29.92;;;5.60;94.30;;;;;;5021897;28;20038;-55
2020/12/12 10:24:55;;;;;;;67.97;29.33;;;5.60;94.30;;;;;;5021200;28;20096;-54
2020/12/12 10:27:20;;;;;;;70.53;31.58;;;5.60;94.30;;;;;;5027690;28;20053;-55
2020/12/12 10:29:46;;;;;;;72.88;30.80;;;5.60;94.30;;;;;;5032783;28;20077;-55
2020/12/12 10:32:11;;;;;;;71.95;31.45;;;5.60;94.30;;;;;;5010564;28;20335;-55
2020/12/12 10:34:37;;;;;;;64.40;30.10;;;5.60;94.20;;;;;;5025848;28;20096;-56
2020/12/12 10:37:22;;;;;;;65.35;29.63;;;5.70;94.00;;;;;;5002803;28;20053;-54
2020/12/12 10:42:36;;;;;;;71.13;29.33;;;5.60;94.10;;;;;;5023567;28;20076;-54
2020/12/12 10:45:05;;;;;;;74.93;32.28;;;5.70;94.20;;;;;;5009787;28;20096;-55
2020/12/12 10:47:31;;;;;;;75.00;31.83;;;5.70;94.20;;;;;;5024591;28;20046;-56
2020/12/12 10:49:57;;;;;;;84.43;32.35;;;5.60;94.30;;;;;;5033642;28;20120;-56
2020/12/12 10:52:23;;;;;;;67.20;31.10;;;5.70;94.30;;;;;;5018777;28;20490;-54
2020/12/12 10:54:50;;;;;;;72.63;30.33;;;5.70;94.20;;;;;;5015816;28;20142;-55
2020/12/12 10:57:17;;;;;;;71.43;29.83;;;5.70;94.10;;;;;;5030911;28;20116;-55
2020/12/12 11:00:05;;;;;;;69.20;30.67;;;5.80;94.10;;;;;;5013979;28;20081;-54
2020/12/12 11:02:34;;;;;;;120.80;72.55;;;5.70;94.20;;;;;;5019550;28;20069;-55
2020/12/12 11:05:21;;;;;;;68.18;30.23;;;5.80;94.30;;;;;;5007590;28;20052;-53
2020/12/12 11:07:47;;;;;;;78.47;32.65;;;5.80;94.40;;;;;;5023716;28;20040;-56
2020/12/12 11:10:12;;;;;;;78.60;33.95;;;5.90;94.30;;;;;;5004341;28;20057;-56
2020/12/12 11:12:58;;;;;;;79.72;32.42;;;5.80;94.20;;;;;;5006319;28;20062;-51
2020/12/12 11:15:25;;;;;;;74.70;32.45;;;5.80;94.40;;;;;;5024270;28;20056;-55
2020/12/12 11:17:50;;;;;;;77.30;32.30;;;5.80;94.40;;;;;;5025189;28;20510;-55
2020/12/12 11:20:17;;;;;;;79.03;37.47;;;5.80;94.40;;;;;;5024937;28;20133;-51
2020/12/12 11:22:43;;;;;;;84.88;32.97;;;5.90;94.40;;;;;;5034705;28;20049;-56
2020/12/12 11:25:10;;;;;;;73.15;30.45;;;5.90;94.40;;;;;;5028018;28;20572;-52
2020/12/12 11:27:55;;;;;;;68.15;29.77;;;5.90;94.40;;;;;;5009882;28;20057;-51
2020/12/12 11:30:22;;;;;;;61.88;28.52;;;5.90;94.40;;;;;;5004099;28;20034;-54
2020/12/12 11:33:08;;;;;;;69.50;28.98;;;5.90;94.50;;;;;;5009881;28;20045;-54
2020/12/12 11:38:19;;;;;;;79.55;32.80;;;6.00;94.40;;;;;;5027666;28;20101;-53
2020/12/12 11:46:28;;;;;;;69.13;29.90;;;5.90;94.30;;;;;;5019840;28;20053;-55
2020/12/12 11:49:14;;;;;;;71.32;29.40;;;5.90;94.50;;;;;;5008294;28;20041;-55
2020/12/12 11:51:42;;;;;;;67.38;30.80;;;5.90;94.50;;;;;;5008356;28;20103;-54
2020/12/12 11:54:07;;;;;;;62.50;28.75;;;5.90;94.60;;;;;;5022022;28;20478;-55
2020/12/12 11:56:33;;;;;;;63.10;30.63;;;6.00;94.60;;;;;;5003797;28;20033;-55
2020/12/12 11:58:59;;;;;;;61.42;29.33;;;6.00;94.70;;;;;;5018280;28;20041;-54
2020/12/12 12:01:26;;;;;;;68.10;30.83;;;6.00;94.60;;;;;;5016188;28;20048;-55
2020/12/12 12:03:54;;;;;;;80.72;31.17;;;6.10;94.50;;;;;;5011675;28;20117;-55
2020/12/12 12:06:20;;;;;;;63.83;29.40;;;6.00;94.50;;;;;;5016820;28;20152;-54
2020/12/12 12:11:30;;;;;;;65.15;29.02;;;6.00;94.60;;;;;;5016180;28;20025;-53
2020/12/12 12:14:09;;;;;;;69.88;29.48;;;6.10;94.70;;;;;;5013386;28;20733;-52
2020/12/12 12:16:39;;;;;;;74.38;33.72;;;6.10;94.60;;;;;;5013137;28;20046;-54
2020/12/12 12:19:16;;;;;;;76.45;33.55;;;6.10;94.60;;;;;;5011954;28;20099;-50
2020/12/12 12:21:47;;;;;;;78.70;31.10;;;6.10;94.70;;;;;;5009216;28;20041;-51
2020/12/12 12:24:15;;;;;;;81.80;32.15;;;6.10;94.60;;;;;;5008445;28;20128;-54
2020/12/12 12:26:42;;;;;;;64.88;30.05;;;6.20;94.70;;;;;;5018952;28;20103;-55
2020/12/12 12:29:11;;;;;;;72.93;31.10;;;6.10;94.70;;;;;;5005682;28;20049;-54
2020/12/12 12:31:37;;;;;;;60.35;26.30;;;6.10;94.80;;;;;;5008408;28;20092;-53
2020/12/12 12:34:03;;;;;;;70.88;32.40;;;6.20;94.90;;;;;;5014407;28;20066;-54
2020/12/12 12:36:30;;;;;;;71.75;31.42;;;6.20;94.70;;;;;;5020877;28;20049;-53
2020/12/12 12:39:15;;;;;;;59.58;26.60;;;6.20;94.60;;;;;;5005654;28;20041;-51
2020/12/12 12:41:43;;;;;;;65.45;26.42;;;6.20;94.70;;;;;;5016276;28;20426;-51
2020/12/12 12:44:08;;;;;;;55.75;25.58;;;6.20;94.70;;;;;;5012485;28;20498;-53
2020/12/12 12:46:38;;;;;;;64.55;28.08;;;6.20;94.60;;;;;;5015502;28;20099;-53
2020/12/12 12:49:04;;;;;;;63.83;26.35;;;6.20;94.70;;;;;;5020383;28;20069;-53
2020/12/12 12:51:30;;;;;;;64.63;27.45;;;6.30;94.80;;;;;;5014499;28;20096;-51
2020/12/12 12:53:56;;;;;;;68.75;33.95;;;6.30;94.70;;;;;;5018497;28;20065;-54
2020/12/12 12:56:23;;;;;;;65.78;28.23;;;6.30;94.80;;;;;;5010390;28;20049;-51
2020/12/12 12:58:49;;;;;;;75.40;28.73;;;6.30;94.70;;;;;;5021507;28;20184;-57
2020/12/12 13:01:19;;;;;;;82.38;30.42;;;6.40;94.80;;;;;;5016964;28;20140;-53
2020/12/12 13:03:45;;;;;;;91.70;32.60;;;6.30;94.90;;;;;;5010100;28;20033;-54
2020/12/12 13:06:26;;;;;;;74.20;29.70;;;6.30;94.80;;;;;;5015800;28;20493;-53
2020/12/12 13:08:56;;;;;;;67.03;28.52;;;6.30;94.90;;;;;;5012142;28;20383;-53
2020/12/12 13:11:41;;;;;;;62.47;26.90;;;6.40;94.90;;;;;;4995125;28;20042;-56
2020/12/12 13:14:07;;;;;;;81.50;30.33;;;6.40;94.80;;;;;;5013295;28;20052;-54
2020/12/12 13:16:54;;;;;;;71.80;29.35;;;6.40;94.90;;;;;;4996399;28;20057;-54
2020/12/12 13:19:25;;;;;;;80.45;29.60;;;6.40;95.00;;;;;;5012541;28;20422;-55